Карточка аэропорта UWWW

Внимание!
Информация на этой странице в стадии наполнения.
Если вы не увидели какой-то информации, или заметили неточность - пожалуйста сообщите нам!
Спасибо!
Команда XR-STAFF
Название аэропортаКурумоч
Название аэропорта (англ.)Kurumoch
Превышение476 ft. (145.1 m.)
Координаты53°30.102', 50°9.3000000000001'
Высота перехода900m
Эшелон переходаQFE>=749mm:FL050; QFE<749=>722:FL060; QFE<722:FL070
Коды ответчика4140-4177
Зона ОрВДСамара РПИ (UWWW)
Данные METARUWWW 160830Z 29005MPS 250V320 9999 VCTS -SHRA FEW033CB 15/06 Q1000 R33/CLRD60 NOSIG RMK QFE739/0986
Проноз погоды (TAF)UWWW 160751Z 1609/1709 27006G13MPS 6000 SCT016 TX18/1611Z TN07/1702Z TEMPO 1609/1615 30010G17MPS 2000 TSRA BKN010 BKN016CB
NOTAMshow/hide NOTAM
AWOS   TABLE

Информация о ВПП

ВПП Длина ВПП (м.) Покрытие Курс ВПП Частота ILS
052553Асфальтобетон49110.5
232553Асфальтобетон229109.7
153003Железобетон148111.9
333003Железобетон328111.1

Диспетчерские позиции

Позывной Наименование органа УВД Частота
UWWW_GNDСамара-Руление119.000
UWWW_TWRСамара-Старт118.200
UWWW_R_APPСамара-Круг128.000
UWWW_APPСамара-Подход124.600
UWWWFM1Машина сопровождения119.000



Спутниковое изображение